Airfield :
LOGIN :

Register | Disclaimer

   EN    FR    IT 

 










Legend :    VFR   Marginal VFR   IFR   Intensive IFR   Very Intensive IFR
Visi :
Ceiling :
>= 8 km
>= 3000ft
5 to 8 km
1000 to 3000 ft
1500m to 5 km
500 to 1000 ft
800 to 1500m
200 to 500 ft
< 800m
< 200 ft
Symbols :   Thunderstorms  Fog  Heavy snow  Heavy precipitations  Wind > 20 kt
SIGMETs :     Misc.  Thunderstorms  Icing  Turbulence  Mountain Waves  Volcanic Ashes






- Airport Elevation : 2054 ft
- IATA code : RRS


ENRO - Røros

CURRENT METAR :
  • 131620Z AUTO 05005KT 010V070 9999 NCD 24/04 Q1014

EXPIRED METARs :
  • 131550Z AUTO 05005KT 330V080 9999 NCD 24/03 Q1014
  • 131520Z AUTO 07008KT 030V110 9999 NCD 24/03 Q1014
  • 131450Z AUTO 15005KT 9999 NCD 23/05 Q1015
  • 131420Z AUTO 02004KT 330V060 9999 NCD 23/06 Q1015
  • 131350Z AUTO 12004KT 060V180 9999 NCD 23/06 Q1015
  • 131320Z AUTO 04007KT 010V080 9999 NCD 23/07 Q1015
  • 131250Z AUTO VRB05KT 9999 NCD 23/06 Q1016
  • 131220Z AUTO 07007KT 030V110 9999 NCD 22/06 Q1016
  • 131150Z AUTO VRB03KT 9999 NCD 22/05 Q1016

Expired Forecast.



MET'MAP, your aeronautical weather chart ! - Copyright ORBIFLY December 2007 - Disclaimer

ORBIFLY MET'MAP TEAM :

Programming & Development : Alexandra Zaïnal
Original concept : Baudouin d'Aumeries
Technical & hardware support : Manuel Goepfert
Assistance : Marc-Olivier Méhu




SOURCES & CREDITS :

   NOAA